createdAt,value
2022-08-20T00:00:31.334Z,60.68
2022-08-20T00:03:03.242Z,60.75
2022-08-20T00:05:35.417Z,60.83
2022-08-20T00:08:04.837Z,61.12
2022-08-20T00:10:49.014Z,61.17
2022-08-20T00:13:20.358Z,61.44
2022-08-20T00:15:55.694Z,61.41
2022-08-20T00:18:25.240Z,62.07
2022-08-20T00:20:58.164Z,62.35
2022-08-20T00:23:31.406Z,62.56
2022-08-20T00:25:58.694Z,62.49
2022-08-20T00:28:28.376Z,62.68
2022-08-20T00:30:59.988Z,62.78
2022-08-20T00:33:28.790Z,63.38
2022-08-20T00:35:58.674Z,63.29
2022-08-20T00:38:28.648Z,63.21
2022-08-20T00:41:01.004Z,63.00
2022-08-20T00:43:38.167Z,63.25
2022-08-20T00:46:18.759Z,63.54
2022-08-20T00:48:51.954Z,63.81
2022-08-20T00:51:35.003Z,63.88
2022-08-20T00:54:11.184Z,64.48
2022-08-20T00:56:42.909Z,64.90
2022-08-20T00:59:20.864Z,64.80
2022-08-20T01:01:56.705Z,65.45
2022-08-20T01:04:28.784Z,65.25
2022-08-20T01:07:02.278Z,65.92
2022-08-20T01:09:58.049Z,65.60
2022-08-20T01:12:25.516Z,65.14
2022-08-20T01:15:07.952Z,65.02
2022-08-20T01:17:40.471Z,65.27
2022-08-20T01:20:35.222Z,65.62
2022-08-20T01:23:35.302Z,65.74
2022-08-20T01:26:07.140Z,66.15
2022-08-20T01:28:43.450Z,66.61
2022-08-20T01:31:20.185Z,65.97
2022-08-20T01:33:56.070Z,66.69
2022-08-20T01:36:35.597Z,66.99
2022-08-20T01:39:10.781Z,66.99
2022-08-20T01:41:45.913Z,67.34
2022-08-20T01:44:16.799Z,67.45
2022-08-20T01:46:47.924Z,67.83
2022-08-20T01:49:32.066Z,68.41
2022-08-20T01:52:03.854Z,68.50
2022-08-20T01:54:34.286Z,69.10
2022-08-20T01:57:05.964Z,69.27
2022-08-20T01:59:34.716Z,69.45
2022-08-20T02:02:07.196Z,69.25
2022-08-20T02:04:36.187Z,69.24
2022-08-20T02:07:06.584Z,69.81
2022-08-20T02:09:39.218Z,69.59
2022-08-20T02:12:13.918Z,69.95
2022-08-20T02:14:47.603Z,70.04
2022-08-20T02:17:19.968Z,70.32
2022-08-20T02:19:56.204Z,70.68
2022-08-20T02:22:33.836Z,70.72
2022-08-20T02:25:11.517Z,71.57
2022-08-20T02:27:43.664Z,71.66
2022-08-20T02:30:19.338Z,72.01
2022-08-20T02:32:48.155Z,72.39
2022-08-20T02:35:20.896Z,72.65
2022-08-20T02:37:51.712Z,73.27
2022-08-20T02:40:30.514Z,73.82
2022-08-20T02:43:01.289Z,74.23
2022-08-20T02:45:33.441Z,74.67
2022-08-20T02:48:06.738Z,75.90
2022-08-20T02:50:38.206Z,76.00
2022-08-20T02:53:09.711Z,76.16
2022-08-20T02:55:41.530Z,77.15
2022-08-20T02:58:10.440Z,78.42
2022-08-20T03:00:41.475Z,78.54
2022-08-20T03:03:12.208Z,79.55
2022-08-20T03:05:43.407Z,78.91
2022-08-20T03:08:16.921Z,79.99
2022-08-20T03:10:48.111Z,81.07
2022-08-20T03:16:51.784Z,81.60
2022-08-20T03:19:28.654Z,82.51
2022-08-20T03:22:01.288Z,83.43
2022-08-20T03:24:31.855Z,84.05
2022-08-20T03:27:00.815Z,84.89
2022-08-20T03:29:37.079Z,85.53
2022-08-20T03:32:12.001Z,86.17
2022-08-20T03:34:44.071Z,86.30
2022-08-20T03:37:28.197Z,87.17
2022-08-20T03:39:59.018Z,88.63
2022-08-20T03:42:30.413Z,89.01
2022-08-20T03:45:05.465Z,88.92
2022-08-20T03:47:36.653Z,88.64
2022-08-20T03:50:23.082Z,88.91
2022-08-20T03:52:40.387Z,89.97
2022-08-20T03:55:18.899Z,92.07
2022-08-20T03:57:52.638Z,93.59
2022-08-20T04:00:24.576Z,94.24
2022-08-20T04:02:56.036Z,93.85
2022-08-20T04:05:40.019Z,94.67
2022-08-20T04:08:29.082Z,93.86
2022-08-20T04:10:59.821Z,92.05
2022-08-20T04:13:31.123Z,93.03
2022-08-20T04:16:06.633Z,90.95
2022-08-20T04:18:40.853Z,90.04
2022-08-20T04:21:14.848Z,90.21
2022-08-20T04:23:43.555Z,91.89
2022-08-20T04:26:12.611Z,92.62
2022-08-20T04:28:41.481Z,92.25
2022-08-20T04:31:11.905Z,92.46
2022-08-20T04:33:52.662Z,92.58
2022-08-20T04:36:25.643Z,91.20
2022-08-20T04:38:54.947Z,88.52
2022-08-20T04:41:27.094Z,85.02
2022-08-20T04:43:58.185Z,82.84
2022-08-20T04:46:34.097Z,81.13
2022-08-20T04:49:09.969Z,78.84
2022-08-20T04:51:40.376Z,76.92
2022-08-20T04:54:13.616Z,76.28
2022-08-20T04:56:42.531Z,76.34
2022-08-20T04:59:14.220Z,77.61
2022-08-20T05:01:42.969Z,78.27
2022-08-20T05:04:11.716Z,75.61
2022-08-20T05:09:44.136Z,71.33
2022-08-20T05:12:10.721Z,70.06
2022-08-20T05:14:39.453Z,69.30
2022-08-20T05:17:08.180Z,70.19
2022-08-20T05:19:39.614Z,69.62
2022-08-20T05:22:10.054Z,69.11
2022-08-20T05:24:42.886Z,67.51
2022-08-20T05:27:14.094Z,65.87
2022-08-20T05:29:44.686Z,65.81
2022-08-20T05:32:14.119Z,65.16
2022-08-20T05:34:43.464Z,64.44
2022-08-20T05:37:12.192Z,63.38
2022-08-20T05:39:40.843Z,63.59
2022-08-20T05:42:11.897Z,64.67
2022-08-20T05:44:42.318Z,64.25
2022-08-20T05:47:12.215Z,63.02
2022-08-20T05:49:42.300Z,63.87
2022-08-20T05:52:12.787Z,62.96
2022-08-20T05:54:41.567Z,62.67
2022-08-20T05:57:14.721Z,61.10
2022-08-20T05:59:46.307Z,60.92
2022-08-20T06:02:34.413Z,60.17
2022-08-20T06:05:03.201Z,62.74
2022-08-20T06:07:32.013Z,60.83
2022-08-20T06:10:03.621Z,61.18
2022-08-20T06:12:32.736Z,61.18
2022-08-20T06:15:01.517Z,60.00
2022-08-20T06:17:39.311Z,59.04
2022-08-20T06:20:07.995Z,58.54
2022-08-20T06:22:42.315Z,58.10
2022-08-20T06:25:14.585Z,60.09
2022-08-20T06:27:44.883Z,59.52
2022-08-20T06:30:17.480Z,59.92
2022-08-20T06:32:46.538Z,61.06
2022-08-20T06:35:19.420Z,60.79
2022-08-20T06:37:46.645Z,59.01
2022-08-20T06:40:18.978Z,58.22
2022-08-20T06:42:49.728Z,56.38
2022-08-20T06:45:23.407Z,55.67
2022-08-20T06:47:56.036Z,55.10
2022-08-20T06:50:28.043Z,56.07
2022-08-20T06:52:56.845Z,54.75
2022-08-20T06:55:25.811Z,54.33
2022-08-20T06:58:03.378Z,54.70
2022-08-20T07:00:35.496Z,53.54
2022-08-20T07:03:18.579Z,53.26
2022-08-20T07:05:56.083Z,51.81
2022-08-20T07:08:23.573Z,52.17
2022-08-20T07:25:44.158Z,49.65
2022-08-20T07:28:14.797Z,49.60
2022-08-20T07:31:13.332Z,48.75
2022-08-20T07:33:42.495Z,48.52
2022-08-20T07:36:14.047Z,47.98
2022-08-20T07:38:53.876Z,47.90
2022-08-20T07:41:30.030Z,47.97
2022-08-20T07:44:33.106Z,48.30
2022-08-20T07:47:14.646Z,48.98
2022-08-20T07:49:48.410Z,47.53
2022-08-20T07:55:18.221Z,47.15
2022-08-20T07:57:54.540Z,45.90
2022-08-20T08:00:57.683Z,45.48
2022-08-20T08:03:48.995Z,45.05
2022-08-20T08:09:17.172Z,45.70
2022-08-20T08:11:56.766Z,45.12
2022-08-20T08:14:32.205Z,44.28
2022-08-20T08:17:08.465Z,45.04
2022-08-20T08:19:45.970Z,44.88
2022-08-20T08:22:22.474Z,44.58
2022-08-20T08:24:58.600Z,44.48
2022-08-20T08:27:38.342Z,43.25
2022-08-20T08:30:15.112Z,42.57
2022-08-20T08:33:08.662Z,42.81
2022-08-20T08:35:48.617Z,43.28
2022-08-20T08:38:28.983Z,43.51
2022-08-20T08:41:05.487Z,43.52
2022-08-20T08:46:35.984Z,41.86
2022-08-20T08:52:14.476Z,42.07
2022-08-20T08:54:52.781Z,42.72
2022-08-20T08:57:28.230Z,42.32
2022-08-20T09:00:11.122Z,42.55
2022-08-20T09:02:50.721Z,41.64
2022-08-20T09:05:25.735Z,41.34
2022-08-20T09:08:16.856Z,41.73
2022-08-20T09:10:51.868Z,41.96
2022-08-20T09:13:22.678Z,41.00
2022-08-20T09:15:55.257Z,40.65
2022-08-20T09:18:29.975Z,39.71
2022-08-20T09:20:59.098Z,39.64
2022-08-20T09:23:33.698Z,39.49
2022-08-20T09:26:10.363Z,39.99
2022-08-20T09:28:55.061Z,39.76
2022-08-20T09:31:21.864Z,39.26
2022-08-20T09:33:59.369Z,38.72
2022-08-20T09:36:37.851Z,37.48
2022-08-20T09:42:29.614Z,37.43
2022-08-20T09:45:02.794Z,37.83
2022-08-20T09:47:56.206Z,36.98
2022-08-20T09:50:35.116Z,37.18
2022-08-20T09:53:06.865Z,36.69
2022-08-20T09:55:40.801Z,37.05
2022-08-20T09:58:30.708Z,36.63
2022-08-20T10:01:01.159Z,36.02
2022-08-20T10:03:29.789Z,36.99
2022-08-20T10:05:59.880Z,37.65
2022-08-20T10:08:28.631Z,36.84
2022-08-20T10:10:57.358Z,36.42
2022-08-20T10:13:26.136Z,35.62
2022-08-20T10:15:54.863Z,36.67
2022-08-20T10:18:26.725Z,36.31
2022-08-20T10:20:55.365Z,35.22
2022-08-20T10:23:23.941Z,35.45
2022-08-20T10:25:54.079Z,35.75
2022-08-20T10:28:22.742Z,35.45
2022-08-20T10:30:51.487Z,36.82
2022-08-20T10:33:20.239Z,37.05
2022-08-20T10:35:49.207Z,36.99
2022-08-20T10:38:19.817Z,36.79
2022-08-20T10:40:52.654Z,36.22
2022-08-20T10:43:19.348Z,35.37
2022-08-20T10:45:49.067Z,33.42
2022-08-20T10:51:16.539Z,32.10
2022-08-20T10:53:57.200Z,30.86
2022-08-20T10:56:31.838Z,30.30
2022-08-20T11:01:58.612Z,30.50
2022-08-20T11:04:27.532Z,31.39
2022-08-20T11:07:07.267Z,32.18
2022-08-20T11:10:13.766Z,32.83
2022-08-20T11:12:54.414Z,32.99
2022-08-20T11:15:29.669Z,31.41
2022-08-20T11:18:01.632Z,30.54
2022-08-20T11:20:51.020Z,30.03
2022-08-20T11:26:42.101Z,28.83
2022-08-20T11:32:29.273Z,29.80
2022-08-20T11:35:13.789Z,29.87
2022-08-20T11:37:58.731Z,29.68
2022-08-20T11:41:02.270Z,30.78
2022-08-20T11:44:10.547Z,31.17
2022-08-20T11:49:30.907Z,32.52
2022-08-20T11:52:18.620Z,32.85
2022-08-20T11:54:54.677Z,32.75
2022-08-20T11:57:35.352Z,32.51
2022-08-20T12:00:08.941Z,31.94
2022-08-20T12:02:39.113Z,33.06
2022-08-20T12:05:10.364Z,30.95
2022-08-20T12:07:43.847Z,30.95
2022-08-20T12:10:14.910Z,30.25
2022-08-20T12:12:45.003Z,29.74
2022-08-20T12:15:13.724Z,30.03
2022-08-20T12:17:42.645Z,30.82
2022-08-20T12:20:14.184Z,32.11
2022-08-20T12:22:44.784Z,32.06
2022-08-20T12:25:13.930Z,33.34
2022-08-20T12:27:46.957Z,32.63
2022-08-20T12:30:20.087Z,32.09
2022-08-20T12:33:07.191Z,34.42
2022-08-20T12:35:37.866Z,35.16
2022-08-20T12:38:07.834Z,36.23
2022-08-20T12:40:38.821Z,39.09
2022-08-20T12:43:08.564Z,43.71
2022-08-20T12:45:42.454Z,50.47
2022-08-20T12:48:17.221Z,58.24
2022-08-20T12:50:46.397Z,63.58
2022-08-20T12:53:15.075Z,79.35
2022-08-20T12:55:43.788Z,89.89
2022-08-20T12:58:13.570Z,96.20
2022-08-20T13:00:50.897Z,100.00
2022-08-20T13:03:18.248Z,100.00
2022-08-20T13:05:48.261Z,100.00
2022-08-20T13:08:20.127Z,100.00
2022-08-20T13:10:50.897Z,100.00
2022-08-20T13:13:20.341Z,100.00
2022-08-20T13:15:50.852Z,100.00
2022-08-20T13:18:23.875Z,100.00
2022-08-20T13:20:52.663Z,100.00
2022-08-20T13:23:21.359Z,100.00
2022-08-20T13:25:50.111Z,100.00
2022-08-20T13:28:21.665Z,100.00
2022-08-20T13:30:50.467Z,100.00
2022-08-20T13:33:19.269Z,100.00
2022-08-20T13:35:47.981Z,100.00
2022-08-20T13:38:16.691Z,100.00
2022-08-20T13:40:48.931Z,100.00
2022-08-20T13:43:17.375Z,100.00
2022-08-20T13:45:47.747Z,100.00
2022-08-20T13:48:16.503Z,100.00
2022-08-20T13:50:49.432Z,100.00
2022-08-20T13:53:21.809Z,100.00
2022-08-20T13:55:51.989Z,100.00
2022-08-20T13:58:22.880Z,100.00
2022-08-20T14:00:52.004Z,100.00
2022-08-20T14:03:25.491Z,100.00
2022-08-20T14:05:56.370Z,100.00
2022-08-20T14:08:31.892Z,100.00
2022-08-20T14:14:24.635Z,100.00
2022-08-20T14:19:57.814Z,100.00
2022-08-20T14:22:26.635Z,100.00
2022-08-20T14:24:56.620Z,100.00
2022-08-20T14:27:31.028Z,100.00
2022-08-20T14:29:57.836Z,100.00
2022-08-20T14:32:27.178Z,100.00
2022-08-20T14:34:58.426Z,100.00
2022-08-20T14:37:30.441Z,100.00
2022-08-20T14:40:02.801Z,100.00
2022-08-20T14:42:32.010Z,100.00
2022-08-20T14:45:02.309Z,100.00
2022-08-20T14:47:35.313Z,100.00
2022-08-20T14:50:07.013Z,100.00
2022-08-20T14:52:36.855Z,100.00
2022-08-20T14:55:11.423Z,100.00
2022-08-20T14:57:41.269Z,100.00
2022-08-20T15:00:12.695Z,100.00
2022-08-20T15:02:41.984Z,100.00
2022-08-20T15:05:12.992Z,100.00
2022-08-20T15:07:44.880Z,100.00
2022-08-20T15:10:23.952Z,100.00
2022-08-20T15:12:52.936Z,100.00
2022-08-20T15:15:21.755Z,100.00
2022-08-20T15:17:53.666Z,100.00
2022-08-20T15:20:25.324Z,100.00
2022-08-20T15:22:57.097Z,100.00
2022-08-20T15:25:36.691Z,100.00
2022-08-20T15:28:07.647Z,100.00
2022-08-20T15:30:46.176Z,100.00
2022-08-20T15:33:16.936Z,100.00
2022-08-20T15:35:45.977Z,100.00
2022-08-20T15:38:20.647Z,100.00
2022-08-20T15:41:02.333Z,100.00
2022-08-20T15:47:20.070Z,100.00
2022-08-20T15:50:14.182Z,100.00
2022-08-20T15:52:44.685Z,100.00
2022-08-20T15:55:16.745Z,100.00
2022-08-20T16:50:44.455Z,100.00
2022-08-20T16:53:24.018Z,100.00
2022-08-20T16:57:00.085Z,100.00
2022-08-20T17:21:29.461Z,100.00
2022-08-20T17:24:06.783Z,100.00
2022-08-20T17:26:40.410Z,100.00
2022-08-20T17:32:19.642Z,100.00
2022-08-20T17:34:53.570Z,100.00
2022-08-20T17:37:27.648Z,100.00
2022-08-20T17:40:11.533Z,100.00
2022-08-20T17:42:56.696Z,100.00
2022-08-20T17:45:28.494Z,100.00
2022-08-20T17:48:00.136Z,100.00
2022-08-20T17:50:34.722Z,100.00
2022-08-20T17:53:23.725Z,100.00
2022-08-20T17:55:55.120Z,100.00
2022-08-20T17:58:28.958Z,100.00
2022-08-20T18:00:57.757Z,100.00
2022-08-20T18:03:28.291Z,100.00
2022-08-20T18:06:02.827Z,100.00
2022-08-20T18:08:44.271Z,100.00
2022-08-20T18:11:22.512Z,100.00
2022-08-20T18:14:03.198Z,100.00
2022-08-20T18:16:37.519Z,100.00
2022-08-20T18:19:18.859Z,100.00
2022-08-20T18:22:02.608Z,100.00
2022-08-20T18:24:52.289Z,100.00
2022-08-20T18:27:27.276Z,100.00
2022-08-20T18:29:58.990Z,100.00
2022-08-20T18:32:34.579Z,100.00
2022-08-20T18:35:24.673Z,100.00
2022-08-20T18:37:53.621Z,100.00
2022-08-20T18:40:33.366Z,100.00
2022-08-20T18:43:06.695Z,100.00
2022-08-20T18:45:40.656Z,100.00
2022-08-20T18:48:19.230Z,100.00
2022-08-20T18:50:58.305Z,100.00
2022-08-20T18:53:33.717Z,100.00
2022-08-20T18:56:11.158Z,100.00
2022-08-20T18:59:14.777Z,100.00
2022-08-20T19:01:44.566Z,100.00
2022-08-20T19:04:32.581Z,100.00
2022-08-20T19:07:05.928Z,100.00
2022-08-20T19:09:59.954Z,100.00
2022-08-20T19:12:48.624Z,100.00
2022-08-20T19:15:24.182Z,100.00
2022-08-20T19:18:29.127Z,100.00
2022-08-20T19:21:15.586Z,100.00
2022-08-20T19:23:39.077Z,100.00
2022-08-20T19:26:25.424Z,100.00
2022-08-20T19:29:00.529Z,100.00
2022-08-20T19:31:34.420Z,100.00
2022-08-20T19:34:19.900Z,100.00
2022-08-20T19:36:54.156Z,100.00
2022-08-20T19:39:26.762Z,100.00
2022-08-20T19:42:12.765Z,100.00
2022-08-20T19:45:11.493Z,100.00
2022-08-20T19:47:43.330Z,100.00
2022-08-20T19:50:42.719Z,100.00
2022-08-20T19:53:34.665Z,100.00
2022-08-20T19:56:09.372Z,100.00
2022-08-20T19:58:40.134Z,100.00
2022-08-20T20:01:20.935Z,100.00
2022-08-20T20:04:05.503Z,100.00
2022-08-20T20:06:39.781Z,100.00
2022-08-20T20:09:11.498Z,100.00
2022-08-20T20:11:49.160Z,100.00
2022-08-20T20:14:23.506Z,100.00
2022-08-20T20:16:56.830Z,100.00
2022-08-20T20:19:28.299Z,100.00
2022-08-20T20:22:20.929Z,100.00
2022-08-20T20:24:53.498Z,100.00
2022-08-20T20:27:44.607Z,100.00
2022-08-20T20:30:14.649Z,100.00
2022-08-20T20:32:48.228Z,100.00
2022-08-20T20:35:34.943Z,100.00
2022-08-20T20:38:06.620Z,100.00
2022-08-20T20:40:47.696Z,100.00
2022-08-20T20:43:33.099Z,100.00
2022-08-20T20:46:25.373Z,100.00
2022-08-20T20:49:12.254Z,100.00
2022-08-20T20:51:44.351Z,100.00
2022-08-20T20:54:31.619Z,100.00
2022-08-20T20:57:03.231Z,100.00
2022-08-20T20:59:40.986Z,100.00
2022-08-20T21:02:11.705Z,100.00
2022-08-20T21:04:44.269Z,100.00
2022-08-20T21:07:15.983Z,100.00
2022-08-20T21:09:46.488Z,100.00
2022-08-20T21:12:15.408Z,100.00
2022-08-20T21:14:45.022Z,100.00
2022-08-20T21:17:22.035Z,100.00
2022-08-20T21:19:52.434Z,100.00
2022-08-20T21:22:22.882Z,100.00
2022-08-20T21:24:51.672Z,100.00
2022-08-20T21:27:27.266Z,100.00
2022-08-20T21:29:58.787Z,100.00
2022-08-20T21:32:30.388Z,100.00
2022-08-20T21:34:59.037Z,100.00
2022-08-20T21:37:27.767Z,100.00
2022-08-20T21:39:56.563Z,100.00
2022-08-20T21:42:29.447Z,100.00
2022-08-20T21:44:58.887Z,100.00
2022-08-20T21:47:28.430Z,100.00
2022-08-20T21:49:57.222Z,100.00
2022-08-20T21:52:25.980Z,100.00
2022-08-20T21:54:54.782Z,100.00
2022-08-20T21:57:26.423Z,100.00
2022-08-20T21:59:56.411Z,100.00
2022-08-20T22:02:27.164Z,100.00
2022-08-20T22:04:56.164Z,100.00
2022-08-20T22:07:25.570Z,100.00
2022-08-20T22:09:55.427Z,100.00
2022-08-20T22:15:25.313Z,100.00
2022-08-20T22:17:55.223Z,100.00
2022-08-20T22:20:29.941Z,100.00
2022-08-20T22:23:04.788Z,100.00
2022-08-20T22:25:37.079Z,100.00
2022-08-20T22:31:02.117Z,100.00
2022-08-20T22:36:28.990Z,100.00
2022-08-20T22:39:06.478Z,100.00
2022-08-20T22:42:06.649Z,100.00
2022-08-20T22:47:45.222Z,100.00
2022-08-20T22:53:01.825Z,100.00
2022-08-20T22:55:38.967Z,100.00
2022-08-20T22:58:17.977Z,100.00
2022-08-20T23:00:58.108Z,100.00
2022-08-20T23:03:39.841Z,100.00
2022-08-20T23:06:05.893Z,100.00
2022-08-20T23:08:36.763Z,100.00
2022-08-20T23:11:05.339Z,100.00
2022-08-20T23:13:34.182Z,100.00
2022-08-20T23:16:03.125Z,100.00
2022-08-20T23:18:32.515Z,100.00
2022-08-20T23:21:03.247Z,100.00
2022-08-20T23:23:32.975Z,100.00
2022-08-20T23:26:03.400Z,100.00
2022-08-20T23:28:35.477Z,100.00
2022-08-20T23:31:04.182Z,100.00
2022-08-20T23:33:32.784Z,100.00
2022-08-20T23:36:04.214Z,100.00
2022-08-20T23:38:33.023Z,100.00
2022-08-20T23:41:05.330Z,100.00
2022-08-20T23:43:33.801Z,100.00
2022-08-20T23:46:05.394Z,100.00
2022-08-20T23:48:36.963Z,100.00
2022-08-20T23:51:06.195Z,100.00
2022-08-20T23:53:36.197Z,100.00
2022-08-20T23:56:05.813Z,100.00
2022-08-20T23:58:34.605Z,100.00
